createdAt,value
2019-03-31T00:02:40.666Z,12.30
2019-03-31T00:07:47.496Z,12.10
2019-03-31T00:12:54.499Z,12.00
2019-03-31T00:18:01.276Z,12.00
2019-03-31T00:23:08.043Z,11.90
2019-03-31T00:28:15.382Z,11.80
2019-03-31T00:33:24.353Z,11.80
2019-03-31T00:38:31.206Z,11.80
2019-03-31T00:43:39.231Z,11.70
2019-03-31T00:48:46.135Z,11.80
2019-03-31T00:53:52.982Z,11.80
2019-03-31T00:58:59.972Z,11.70
2019-03-31T01:04:08.594Z,11.70
2019-03-31T01:09:24.249Z,11.60
2019-03-31T01:14:31.685Z,11.60
2019-03-31T01:19:38.995Z,11.70
2019-03-31T01:24:46.014Z,11.60
2019-03-31T01:29:53.069Z,11.50
2019-03-31T01:35:00.371Z,11.50
2019-03-31T01:40:07.709Z,11.50
2019-03-31T01:45:14.932Z,11.50
2019-03-31T01:50:22.347Z,11.50
2019-03-31T01:55:29.191Z,11.40
2019-03-31T02:00:42.503Z,11.40
2019-03-31T02:05:49.408Z,11.30
2019-03-31T02:10:56.255Z,11.30
2019-03-31T02:16:03.641Z,11.30
2019-03-31T02:21:10.589Z,11.20
2019-03-31T02:26:17.432Z,11.20
2019-03-31T02:31:24.285Z,11.10
2019-03-31T02:36:31.324Z,11.10
2019-03-31T02:41:38.114Z,11.00
2019-03-31T02:46:45.073Z,10.90
2019-03-31T02:51:52.105Z,10.90
2019-03-31T02:57:00.262Z,10.90
2019-03-31T03:02:07.490Z,10.90
2019-03-31T03:07:15.371Z,10.90
2019-03-31T03:12:25.717Z,10.80
2019-03-31T03:17:32.474Z,10.80
2019-03-31T03:22:39.281Z,10.60
2019-03-31T03:27:46.240Z,10.50
2019-03-31T03:33:13.859Z,10.50
2019-03-31T03:38:01.970Z,10.40
2019-03-31T03:43:09.022Z,10.40
2019-03-31T03:48:16.074Z,10.30
2019-03-31T03:53:23.657Z,10.30
2019-03-31T03:58:30.561Z,10.30
2019-03-31T04:03:37.372Z,10.30
2019-03-31T04:08:44.165Z,10.30
2019-03-31T04:13:51.361Z,10.30
2019-03-31T04:18:58.597Z,10.20
2019-03-31T04:24:06.077Z,10.10
2019-03-31T04:29:13.436Z,10.10
2019-03-31T04:34:20.745Z,10.00
2019-03-31T04:39:27.697Z,10.00
2019-03-31T04:44:34.740Z,9.90
2019-03-31T04:49:41.561Z,9.90
2019-03-31T04:54:48.444Z,9.80
2019-03-31T04:59:55.546Z,9.70
2019-03-31T05:05:02.614Z,9.70
2019-03-31T05:10:10.044Z,9.90
2019-03-31T05:15:17.252Z,9.90
2019-03-31T05:20:24.976Z,9.80
2019-03-31T05:25:31.843Z,9.90
2019-03-31T05:30:39.113Z,9.90
2019-03-31T05:35:47.964Z,9.90
2019-03-31T05:40:55.046Z,10.00
2019-03-31T05:46:02.191Z,10.00
2019-03-31T05:51:09.004Z,10.00
2019-03-31T05:56:15.801Z,10.00
2019-03-31T06:01:23.121Z,10.00
2019-03-31T06:06:30.017Z,10.10
2019-03-31T06:11:36.814Z,9.80
2019-03-31T06:16:44.839Z,9.70
2019-03-31T06:21:53.274Z,9.70
2019-03-31T06:27:00.216Z,9.60
2019-03-31T06:32:07.591Z,9.40
2019-03-31T06:37:14.458Z,9.40
2019-03-31T06:42:21.311Z,9.30
2019-03-31T06:47:28.086Z,9.20
2019-03-31T06:52:34.942Z,9.10
2019-03-31T06:57:41.852Z,9.10
2019-03-31T07:02:48.827Z,8.90
2019-03-31T07:07:56.087Z,8.90
2019-03-31T07:13:03.123Z,8.70
2019-03-31T07:18:10.251Z,8.60
2019-03-31T07:23:18.585Z,8.50
2019-03-31T07:28:25.430Z,8.30
2019-03-31T07:33:32.251Z,8.30
2019-03-31T07:38:39.845Z,8.20
2019-03-31T07:43:46.884Z,8.10
2019-03-31T07:48:53.822Z,8.20
2019-03-31T07:54:00.848Z,8.20
2019-03-31T07:59:07.607Z,8.40
2019-03-31T08:04:15.495Z,8.40
2019-03-31T08:09:22.411Z,8.50
2019-03-31T08:14:29.195Z,8.40
2019-03-31T08:19:36.119Z,8.50
2019-03-31T08:24:45.774Z,8.60
2019-03-31T08:30:00.454Z,8.60
2019-03-31T08:35:01.637Z,8.70
2019-03-31T08:40:10.630Z,8.70
2019-03-31T08:45:17.556Z,8.80
2019-03-31T08:50:24.976Z,9.00
2019-03-31T08:55:34.856Z,9.10
2019-03-31T09:00:51.874Z,9.10
2019-03-31T09:06:02.156Z,9.20
2019-03-31T09:11:07.408Z,9.40
2019-03-31T09:16:14.526Z,9.50
2019-03-31T09:21:21.460Z,9.80
2019-03-31T09:26:28.434Z,9.90
2019-03-31T09:31:35.383Z,10.20
2019-03-31T09:36:42.189Z,11.40
2019-03-31T09:41:49.170Z,11.80
2019-03-31T09:46:56.202Z,12.40
2019-03-31T09:52:03.133Z,13.40
2019-03-31T09:57:10.661Z,12.50
2019-03-31T10:02:17.563Z,12.70
2019-03-31T10:07:25.418Z,13.30
2019-03-31T10:12:32.332Z,13.30
2019-03-31T10:17:39.292Z,14.10
2019-03-31T10:22:46.306Z,13.70
2019-03-31T10:27:53.144Z,13.80
2019-03-31T10:33:00.046Z,14.20
2019-03-31T10:38:07.676Z,14.40
2019-03-31T10:43:14.526Z,14.70
2019-03-31T10:48:21.520Z,14.20
2019-03-31T10:53:28.751Z,15.30
2019-03-31T10:58:36.476Z,15.40
2019-03-31T11:03:44.547Z,14.80
2019-03-31T11:08:51.445Z,14.30
2019-03-31T11:13:58.288Z,14.10
2019-03-31T11:19:06.019Z,14.50
2019-03-31T11:24:12.937Z,14.90
2019-03-31T11:29:19.813Z,14.40
2019-03-31T11:34:26.861Z,14.50
2019-03-31T11:39:33.754Z,14.30
2019-03-31T11:44:40.682Z,14.40
2019-03-31T11:50:02.258Z,15.20
2019-03-31T11:55:09.721Z,15.50
2019-03-31T12:00:18.096Z,15.00
2019-03-31T12:05:36.539Z,15.00
2019-03-31T12:10:43.446Z,15.00
2019-03-31T12:15:51.484Z,15.00
2019-03-31T12:20:58.387Z,15.20
2019-03-31T12:26:06.269Z,15.30
2019-03-31T12:31:13.073Z,14.80
2019-03-31T12:36:20.224Z,14.70
2019-03-31T12:41:27.244Z,15.10
2019-03-31T12:46:34.180Z,15.40
2019-03-31T12:51:41.157Z,15.40
2019-03-31T12:56:48.120Z,15.20
2019-03-31T13:01:55.059Z,15.40
2019-03-31T13:07:02.021Z,15.00
2019-03-31T13:12:09.151Z,15.00
2019-03-31T13:17:17.803Z,14.70
2019-03-31T13:22:25.842Z,14.80
2019-03-31T13:27:32.792Z,14.90
2019-03-31T13:32:39.636Z,14.80
2019-03-31T13:37:46.561Z,14.80
2019-03-31T13:42:53.438Z,14.80
2019-03-31T13:48:00.321Z,15.20
2019-03-31T13:53:08.178Z,15.30
2019-03-31T13:58:15.651Z,14.90
2019-03-31T14:03:23.881Z,15.00
2019-03-31T14:08:30.844Z,15.10
2019-03-31T14:13:37.730Z,14.80
2019-03-31T14:18:45.041Z,14.70
2019-03-31T14:23:51.984Z,14.80
2019-03-31T14:28:58.819Z,14.90
2019-03-31T14:34:06.376Z,14.90
2019-03-31T14:39:13.178Z,14.80
2019-03-31T14:44:20.348Z,14.70
2019-03-31T14:49:28.345Z,14.80
2019-03-31T14:54:35.238Z,15.00
2019-03-31T14:59:42.252Z,15.00
2019-03-31T15:04:49.270Z,14.80
2019-03-31T15:09:56.565Z,14.50
2019-03-31T15:15:03.440Z,14.40
2019-03-31T15:20:12.092Z,14.40
2019-03-31T15:25:19.231Z,14.20
2019-03-31T15:30:26.190Z,14.50
2019-03-31T15:35:33.301Z,14.30
2019-03-31T15:40:40.867Z,14.20
2019-03-31T15:45:48.326Z,14.20
2019-03-31T15:50:55.219Z,14.10
2019-03-31T15:56:02.371Z,14.10
2019-03-31T16:01:09.225Z,14.20
2019-03-31T16:06:16.343Z,14.20
2019-03-31T16:11:22.718Z,13.90
2019-03-31T16:16:30.672Z,13.90
2019-03-31T16:21:37.078Z,13.90
2019-03-31T16:26:43.420Z,13.70
2019-03-31T16:31:51.156Z,13.80
2019-03-31T16:36:57.626Z,13.30
2019-03-31T16:42:04.104Z,13.20
2019-03-31T16:47:10.770Z,13.10
2019-03-31T16:52:18.457Z,13.10
2019-03-31T16:57:25.903Z,13.00
2019-03-31T17:02:33.486Z,12.90
2019-03-31T17:07:39.815Z,12.60
2019-03-31T17:12:46.358Z,12.70
2019-03-31T17:17:52.635Z,12.70
2019-03-31T17:22:59.225Z,12.60
2019-03-31T17:28:05.764Z,12.40
2019-03-31T17:33:13.146Z,12.40
2019-03-31T17:38:19.685Z,12.30
2019-03-31T17:43:26.304Z,12.10
2019-03-31T17:48:32.838Z,12.10
2019-03-31T17:53:39.360Z,12.10
2019-03-31T17:58:47.015Z,12.00
2019-03-31T18:03:53.370Z,12.00
2019-03-31T18:09:01.596Z,11.80
2019-03-31T18:14:10.763Z,11.70
2019-03-31T18:19:17.241Z,11.70
2019-03-31T18:24:25.165Z,11.50
2019-03-31T18:29:31.600Z,11.60
2019-03-31T18:34:40.530Z,11.40
2019-03-31T18:39:47.226Z,11.30
2019-03-31T18:44:53.590Z,11.20
2019-03-31T18:50:02.264Z,11.30
2019-03-31T18:55:30.921Z,11.20
2019-03-31T19:01:05.007Z,11.20
2019-03-31T19:06:22.072Z,11.00
2019-03-31T19:11:50.610Z,10.90
2019-03-31T19:17:16.265Z,10.90
2019-03-31T19:22:41.593Z,10.80
2019-03-31T19:28:15.930Z,10.70
2019-03-31T19:33:36.416Z,10.50
2019-03-31T19:39:11.183Z,10.30
2019-03-31T19:44:39.866Z,10.50
2019-03-31T19:49:57.145Z,10.40
2019-03-31T19:55:15.011Z,10.30
2019-03-31T20:00:39.694Z,10.20
2019-03-31T20:06:03.536Z,10.10
2019-03-31T20:11:29.366Z,10.10
2019-03-31T20:16:55.865Z,9.80
2019-03-31T20:22:07.842Z,9.90
2019-03-31T20:27:36.120Z,9.70
2019-03-31T20:33:07.301Z,9.80
2019-03-31T20:38:21.868Z,9.60
2019-03-31T20:43:53.135Z,9.60
2019-03-31T20:49:00.271Z,9.50
2019-03-31T20:54:06.678Z,9.40
2019-03-31T20:59:13.236Z,9.40
2019-03-31T21:04:20.223Z,9.20
2019-03-31T21:09:26.635Z,9.20
2019-03-31T21:14:32.931Z,9.10
2019-03-31T21:19:39.325Z,9.00
2019-03-31T21:24:45.621Z,8.80
2019-03-31T21:29:51.917Z,8.80
2019-03-31T21:34:58.491Z,8.80
2019-03-31T21:40:05.834Z,8.60
2019-03-31T21:45:13.468Z,8.50
2019-03-31T21:50:19.829Z,8.50
2019-03-31T21:55:26.695Z,8.40
2019-03-31T22:00:52.293Z,8.30
2019-03-31T22:06:00.210Z,8.20
2019-03-31T22:11:06.708Z,8.10
2019-03-31T22:16:13.034Z,8.00
2019-03-31T22:21:19.559Z,8.00
2019-03-31T22:26:26.014Z,7.80
2019-03-31T22:31:32.493Z,7.60
2019-03-31T22:36:39.964Z,7.50
2019-03-31T22:41:46.399Z,7.50
2019-03-31T22:46:54.520Z,7.50
2019-03-31T22:52:00.795Z,7.30
2019-03-31T22:57:06.981Z,7.30
2019-03-31T23:02:13.438Z,7.10
2019-03-31T23:07:19.641Z,7.10
2019-03-31T23:12:25.927Z,7.10
2019-03-31T23:17:34.679Z,6.90
2019-03-31T23:22:42.282Z,6.80
2019-03-31T23:27:48.621Z,6.70
2019-03-31T23:32:54.844Z,6.60
2019-03-31T23:38:02.430Z,6.50
2019-03-31T23:43:08.780Z,6.50
2019-03-31T23:48:15.005Z,6.30
2019-03-31T23:53:21.247Z,6.30
2019-03-31T23:58:27.631Z,6.20
